sensor_id;sensor_type;location;lat;lon;timestamp;P1;durP1;ratioP1;P2;durP2;ratioP2
55202;SDS011;41077;52.956;6.796;2022-09-02T00:00:58;31.83;;;30.00;;
55202;SDS011;41077;52.956;6.796;2022-09-02T00:03:29;32.60;;;30.75;;
55202;SDS011;41077;52.956;6.796;2022-09-02T00:05:58;30.20;;;28.50;;
55202;SDS011;41077;52.956;6.796;2022-09-02T00:08:25;30.15;;;28.48;;
55202;SDS011;41077;52.956;6.796;2022-09-02T00:10:51;30.27;;;28.15;;
55202;SDS011;41077;52.956;6.796;2022-09-02T00:13:18;28.98;;;27.52;;
55202;SDS011;41077;52.956;6.796;2022-09-02T00:15:45;28.27;;;26.73;;
55202;SDS011;41077;52.956;6.796;2022-09-02T00:18:11;29.67;;;28.13;;
55202;SDS011;41077;52.956;6.796;2022-09-02T00:20:39;32.17;;;30.55;;
55202;SDS011;41077;52.956;6.796;2022-09-02T00:23:07;33.33;;;31.23;;
55202;SDS011;41077;52.956;6.796;2022-09-02T00:25:34;31.30;;;29.73;;
55202;SDS011;41077;52.956;6.796;2022-09-02T00:28:00;33.20;;;31.40;;
55202;SDS011;41077;52.956;6.796;2022-09-02T00:30:26;36.60;;;34.42;;
55202;SDS011;41077;52.956;6.796;2022-09-02T00:32:52;33.85;;;31.98;;
55202;SDS011;41077;52.956;6.796;2022-09-02T00:35:18;36.05;;;34.13;;
55202;SDS011;41077;52.956;6.796;2022-09-02T00:37:44;32.50;;;30.88;;
55202;SDS011;41077;52.956;6.796;2022-09-02T00:40:10;31.33;;;29.70;;
55202;SDS011;41077;52.956;6.796;2022-09-02T00:42:37;34.38;;;32.55;;
55202;SDS011;41077;52.956;6.796;2022-09-02T00:45:03;34.65;;;32.88;;
55202;SDS011;41077;52.956;6.796;2022-09-02T00:47:31;34.25;;;32.22;;
55202;SDS011;41077;52.956;6.796;2022-09-02T00:49:57;37.35;;;35.38;;
55202;SDS011;41077;52.956;6.796;2022-09-02T00:52:25;37.03;;;34.88;;
55202;SDS011;41077;52.956;6.796;2022-09-02T00:57:27;39.88;;;37.50;;
55202;SDS011;41077;52.956;6.796;2022-09-02T01:00:06;42.45;;;40.13;;
55202;SDS011;41077;52.956;6.796;2022-09-02T01:02:42;36.83;;;34.92;;
55202;SDS011;41077;52.956;6.796;2022-09-02T01:05:11;41.35;;;39.35;;
55202;SDS011;41077;52.956;6.796;2022-09-02T01:07:39;39.92;;;37.80;;
55202;SDS011;41077;52.956;6.796;2022-09-02T01:10:12;45.03;;;42.35;;
55202;SDS011;41077;52.956;6.796;2022-09-02T01:12:41;45.70;;;43.40;;
55202;SDS011;41077;52.956;6.796;2022-09-02T01:15:07;44.72;;;42.38;;
55202;SDS011;41077;52.956;6.796;2022-09-02T01:17:35;45.35;;;42.83;;
55202;SDS011;41077;52.956;6.796;2022-09-02T01:20:06;43.28;;;41.10;;
55202;SDS011;41077;52.956;6.796;2022-09-02T01:22:36;47.53;;;44.72;;
55202;SDS011;41077;52.956;6.796;2022-09-02T01:25:06;46.05;;;43.63;;
55202;SDS011;41077;52.956;6.796;2022-09-02T01:27:42;40.85;;;38.60;;
55202;SDS011;41077;52.956;6.796;2022-09-02T01:30:09;43.10;;;40.85;;
55202;SDS011;41077;52.956;6.796;2022-09-02T01:32:38;39.47;;;37.47;;
55202;SDS011;41077;52.956;6.796;2022-09-02T01:35:04;41.15;;;39.13;;
55202;SDS011;41077;52.956;6.796;2022-09-02T01:37:31;41.35;;;39.00;;
55202;SDS011;41077;52.956;6.796;2022-09-02T01:39:57;36.17;;;34.05;;
55202;SDS011;41077;52.956;6.796;2022-09-02T01:42:23;42.00;;;39.72;;
55202;SDS011;41077;52.956;6.796;2022-09-02T01:44:49;40.75;;;38.42;;
55202;SDS011;41077;52.956;6.796;2022-09-02T01:47:17;41.58;;;39.45;;
55202;SDS011;41077;52.956;6.796;2022-09-02T01:49:45;42.03;;;39.88;;
55202;SDS011;41077;52.956;6.796;2022-09-02T01:52:11;39.95;;;37.75;;
55202;SDS011;41077;52.956;6.796;2022-09-02T01:54:38;48.13;;;45.33;;
55202;SDS011;41077;52.956;6.796;2022-09-02T01:57:04;37.72;;;35.80;;
55202;SDS011;41077;52.956;6.796;2022-09-02T01:59:30;42.80;;;40.17;;
55202;SDS011;41077;52.956;6.796;2022-09-02T02:01:55;38.47;;;36.40;;
55202;SDS011;41077;52.956;6.796;2022-09-02T02:04:21;47.25;;;44.67;;
55202;SDS011;41077;52.956;6.796;2022-09-02T02:06:49;40.28;;;38.22;;
55202;SDS011;41077;52.956;6.796;2022-09-02T02:09:16;41.63;;;39.45;;
55202;SDS011;41077;52.956;6.796;2022-09-02T02:11:43;37.92;;;36.00;;
55202;SDS011;41077;52.956;6.796;2022-09-02T02:14:09;44.90;;;42.55;;
55202;SDS011;41077;52.956;6.796;2022-09-02T02:16:35;43.83;;;41.42;;
55202;SDS011;41077;52.956;6.796;2022-09-02T02:19:01;45.33;;;42.85;;
55202;SDS011;41077;52.956;6.796;2022-09-02T02:21:28;45.38;;;43.05;;
55202;SDS011;41077;52.956;6.796;2022-09-02T02:23:54;42.50;;;40.22;;
55202;SDS011;41077;52.956;6.796;2022-09-02T02:26:21;48.55;;;45.90;;
55202;SDS011;41077;52.956;6.796;2022-09-02T02:28:47;47.20;;;44.78;;
55202;SDS011;41077;52.956;6.796;2022-09-02T02:31:13;47.25;;;44.83;;
55202;SDS011;41077;52.956;6.796;2022-09-02T02:33:39;47.63;;;45.13;;
55202;SDS011;41077;52.956;6.796;2022-09-02T02:36:05;52.13;;;49.13;;
55202;SDS011;41077;52.956;6.796;2022-09-02T02:38:32;43.33;;;41.13;;
55202;SDS011;41077;52.956;6.796;2022-09-02T02:40:59;47.08;;;44.72;;
55202;SDS011;41077;52.956;6.796;2022-09-02T02:43:28;45.47;;;43.08;;
55202;SDS011;41077;52.956;6.796;2022-09-02T02:45:54;44.10;;;41.92;;
55202;SDS011;41077;52.956;6.796;2022-09-02T02:48:20;48.80;;;46.05;;
55202;SDS011;41077;52.956;6.796;2022-09-02T02:50:47;55.47;;;52.53;;
55202;SDS011;41077;52.956;6.796;2022-09-02T02:53:12;49.45;;;46.47;;
55202;SDS011;41077;52.956;6.796;2022-09-02T02:55:39;47.63;;;45.25;;
55202;SDS011;41077;52.956;6.796;2022-09-02T02:58:05;52.72;;;49.90;;
55202;SDS011;41077;52.956;6.796;2022-09-02T03:00:31;57.58;;;54.42;;
55202;SDS011;41077;52.956;6.796;2022-09-02T03:03:02;51.33;;;48.60;;
55202;SDS011;41077;52.956;6.796;2022-09-02T03:05:32;51.22;;;48.60;;
55202;SDS011;41077;52.956;6.796;2022-09-02T03:08:00;53.58;;;50.53;;
55202;SDS011;41077;52.956;6.796;2022-09-02T03:10:27;54.17;;;51.08;;
55202;SDS011;41077;52.956;6.796;2022-09-02T03:12:56;49.50;;;46.92;;
55202;SDS011;41077;52.956;6.796;2022-09-02T03:15:26;54.10;;;51.35;;
55202;SDS011;41077;52.956;6.796;2022-09-02T03:17:53;48.35;;;45.83;;
55202;SDS011;41077;52.956;6.796;2022-09-02T03:20:20;49.47;;;46.80;;
55202;SDS011;41077;52.956;6.796;2022-09-02T03:22:46;51.85;;;49.20;;
55202;SDS011;41077;52.956;6.796;2022-09-02T03:25:13;50.53;;;47.95;;
55202;SDS011;41077;52.956;6.796;2022-09-02T03:27:42;50.40;;;47.88;;
55202;SDS011;41077;52.956;6.796;2022-09-02T03:30:13;49.58;;;46.97;;
55202;SDS011;41077;52.956;6.796;2022-09-02T03:32:46;57.20;;;54.15;;
55202;SDS011;41077;52.956;6.796;2022-09-02T03:35:13;58.80;;;55.95;;
55202;SDS011;41077;52.956;6.796;2022-09-02T03:37:41;53.42;;;50.22;;
55202;SDS011;41077;52.956;6.796;2022-09-02T03:40:08;47.05;;;44.10;;
55202;SDS011;41077;52.956;6.796;2022-09-02T03:42:36;50.42;;;47.95;;
55202;SDS011;41077;52.956;6.796;2022-09-02T03:45:03;54.83;;;51.78;;
55202;SDS011;41077;52.956;6.796;2022-09-02T03:47:31;49.45;;;47.00;;
55202;SDS011;41077;52.956;6.796;2022-09-02T03:49:56;51.13;;;48.60;;
55202;SDS011;41077;52.956;6.796;2022-09-02T03:52:23;50.65;;;48.05;;
55202;SDS011;41077;52.956;6.796;2022-09-02T03:54:49;52.65;;;49.90;;
55202;SDS011;41077;52.956;6.796;2022-09-02T03:57:15;60.20;;;57.25;;
55202;SDS011;41077;52.956;6.796;2022-09-02T03:59:41;57.75;;;54.80;;
55202;SDS011;41077;52.956;6.796;2022-09-02T04:02:07;60.60;;;57.42;;
55202;SDS011;41077;52.956;6.796;2022-09-02T04:04:33;52.85;;;49.97;;
55202;SDS011;41077;52.956;6.796;2022-09-02T04:06:59;60.60;;;57.55;;
55202;SDS011;41077;52.956;6.796;2022-09-02T04:09:25;60.80;;;57.78;;
55202;SDS011;41077;52.956;6.796;2022-09-02T04:11:50;53.30;;;50.67;;
55202;SDS011;41077;52.956;6.796;2022-09-02T04:14:16;54.20;;;51.50;;
55202;SDS011;41077;52.956;6.796;2022-09-02T04:16:42;59.83;;;56.55;;
55202;SDS011;41077;52.956;6.796;2022-09-02T04:19:08;59.63;;;56.60;;
55202;SDS011;41077;52.956;6.796;2022-09-02T04:21:35;58.90;;;56.05;;
55202;SDS011;41077;52.956;6.796;2022-09-02T04:24:03;62.28;;;58.50;;
55202;SDS011;41077;52.956;6.796;2022-09-02T04:26:29;62.28;;;58.88;;
55202;SDS011;41077;52.956;6.796;2022-09-02T04:28:55;62.83;;;59.63;;
55202;SDS011;41077;52.956;6.796;2022-09-02T04:31:22;60.97;;;57.67;;
55202;SDS011;41077;52.956;6.796;2022-09-02T04:33:49;61.53;;;58.28;;
55202;SDS011;41077;52.956;6.796;2022-09-02T04:36:16;67.82;;;64.28;;
55202;SDS011;41077;52.956;6.796;2022-09-02T04:38:43;58.72;;;55.70;;
55202;SDS011;41077;52.956;6.796;2022-09-02T04:41:14;59.60;;;56.55;;
55202;SDS011;41077;52.956;6.796;2022-09-02T04:43:42;56.80;;;53.95;;
55202;SDS011;41077;52.956;6.796;2022-09-02T04:46:09;55.40;;;52.60;;
55202;SDS011;41077;52.956;6.796;2022-09-02T04:48:37;60.45;;;57.28;;
55202;SDS011;41077;52.956;6.796;2022-09-02T04:51:04;61.55;;;58.35;;
55202;SDS011;41077;52.956;6.796;2022-09-02T04:53:31;72.90;;;68.93;;
55202;SDS011;41077;52.956;6.796;2022-09-02T04:55:58;67.35;;;64.00;;
55202;SDS011;41077;52.956;6.796;2022-09-02T04:58:24;74.50;;;70.70;;
55202;SDS011;41077;52.956;6.796;2022-09-02T05:00:49;69.65;;;66.18;;
55202;SDS011;41077;52.956;6.796;2022-09-02T05:03:15;72.20;;;68.47;;
55202;SDS011;41077;52.956;6.796;2022-09-02T05:05:41;71.55;;;67.78;;
55202;SDS011;41077;52.956;6.796;2022-09-02T05:08:06;72.32;;;68.57;;
55202;SDS011;41077;52.956;6.796;2022-09-02T05:10:32;65.63;;;62.25;;
55202;SDS011;41077;52.956;6.796;2022-09-02T05:12:58;69.97;;;66.60;;
55202;SDS011;41077;52.956;6.796;2022-09-02T05:15:24;67.18;;;63.65;;
55202;SDS011;41077;52.956;6.796;2022-09-02T05:17:51;77.25;;;73.07;;
55202;SDS011;41077;52.956;6.796;2022-09-02T05:20:17;86.32;;;81.97;;
55202;SDS011;41077;52.956;6.796;2022-09-02T05:22:43;75.53;;;71.72;;
55202;SDS011;41077;52.956;6.796;2022-09-02T05:25:10;72.10;;;68.25;;
55202;SDS011;41077;52.956;6.796;2022-09-02T05:27:36;72.93;;;69.07;;
55202;SDS011;41077;52.956;6.796;2022-09-02T05:30:02;64.53;;;61.05;;
55202;SDS011;41077;52.956;6.796;2022-09-02T05:32:29;59.67;;;56.45;;
55202;SDS011;41077;52.956;6.796;2022-09-02T05:34:55;57.17;;;54.08;;
55202;SDS011;41077;52.956;6.796;2022-09-02T05:37:21;67.65;;;63.92;;
55202;SDS011;41077;52.956;6.796;2022-09-02T05:39:48;61.65;;;58.25;;
55202;SDS011;41077;52.956;6.796;2022-09-02T05:42:14;69.80;;;66.38;;
55202;SDS011;41077;52.956;6.796;2022-09-02T05:44:41;65.80;;;62.20;;
55202;SDS011;41077;52.956;6.796;2022-09-02T05:47:09;67.90;;;64.47;;
55202;SDS011;41077;52.956;6.796;2022-09-02T05:49:35;66.80;;;63.30;;
55202;SDS011;41077;52.956;6.796;2022-09-02T05:52:01;68.07;;;64.63;;
55202;SDS011;41077;52.956;6.796;2022-09-02T05:54:32;63.70;;;60.45;;
55202;SDS011;41077;52.956;6.796;2022-09-02T05:57:01;72.95;;;69.18;;
55202;SDS011;41077;52.956;6.796;2022-09-02T05:59:29;69.35;;;65.75;;
55202;SDS011;41077;52.956;6.796;2022-09-02T06:01:59;71.43;;;67.30;;
55202;SDS011;41077;52.956;6.796;2022-09-02T06:04:24;64.53;;;61.08;;
55202;SDS011;41077;52.956;6.796;2022-09-02T06:06:50;71.45;;;67.55;;
55202;SDS011;41077;52.956;6.796;2022-09-02T06:09:18;76.72;;;72.47;;
55202;SDS011;41077;52.956;6.796;2022-09-02T06:11:46;67.05;;;63.55;;
55202;SDS011;41077;52.956;6.796;2022-09-02T06:14:16;72.47;;;68.85;;
55202;SDS011;41077;52.956;6.796;2022-09-02T06:16:45;68.75;;;65.22;;
55202;SDS011;41077;52.956;6.796;2022-09-02T06:19:12;75.18;;;71.45;;
55202;SDS011;41077;52.956;6.796;2022-09-02T06:21:38;78.28;;;73.38;;
55202;SDS011;41077;52.956;6.796;2022-09-02T06:24:04;74.75;;;71.05;;
55202;SDS011;41077;52.956;6.796;2022-09-02T06:26:31;80.80;;;76.45;;
55202;SDS011;41077;52.956;6.796;2022-09-02T06:28:57;73.22;;;69.28;;
55202;SDS011;41077;52.956;6.796;2022-09-02T06:31:23;76.70;;;72.82;;
55202;SDS011;41077;52.956;6.796;2022-09-02T06:33:53;72.88;;;68.78;;
55202;SDS011;41077;52.956;6.796;2022-09-02T06:36:20;73.28;;;69.32;;
55202;SDS011;41077;52.956;6.796;2022-09-02T06:38:49;67.13;;;63.22;;
55202;SDS011;41077;52.956;6.796;2022-09-02T06:41:17;76.80;;;72.95;;
55202;SDS011;41077;52.956;6.796;2022-09-02T06:43:47;69.10;;;65.28;;
55202;SDS011;41077;52.956;6.796;2022-09-02T06:46:19;70.68;;;66.75;;
55202;SDS011;41077;52.956;6.796;2022-09-02T06:48:47;72.25;;;68.38;;
55202;SDS011;41077;52.956;6.796;2022-09-02T06:51:14;74.13;;;70.47;;
55202;SDS011;41077;52.956;6.796;2022-09-02T06:53:44;71.18;;;67.53;;
55202;SDS011;41077;52.956;6.796;2022-09-02T06:56:10;70.55;;;66.88;;
55202;SDS011;41077;52.956;6.796;2022-09-02T06:58:35;71.38;;;67.65;;
55202;SDS011;41077;52.956;6.796;2022-09-02T07:01:01;71.13;;;67.38;;
55202;SDS011;41077;52.956;6.796;2022-09-02T07:03:27;74.60;;;70.90;;
55202;SDS011;41077;52.956;6.796;2022-09-02T07:06:11;67.32;;;63.83;;
55202;SDS011;41077;52.956;6.796;2022-09-02T07:08:38;70.60;;;66.65;;
55202;SDS011;41077;52.956;6.796;2022-09-02T07:11:05;74.38;;;70.57;;
55202;SDS011;41077;52.956;6.796;2022-09-02T07:13:32;68.65;;;65.07;;
55202;SDS011;41077;52.956;6.796;2022-09-02T07:15:59;70.00;;;66.35;;
55202;SDS011;41077;52.956;6.796;2022-09-02T07:18:25;69.70;;;65.93;;
55202;SDS011;41077;52.956;6.796;2022-09-02T07:20:51;63.88;;;60.20;;
55202;SDS011;41077;52.956;6.796;2022-09-02T07:23:18;71.05;;;67.32;;
55202;SDS011;41077;52.956;6.796;2022-09-02T07:25:44;61.92;;;58.47;;
55202;SDS011;41077;52.956;6.796;2022-09-02T07:28:10;65.30;;;62.03;;
55202;SDS011;41077;52.956;6.796;2022-09-02T07:30:36;80.28;;;76.32;;
55202;SDS011;41077;52.956;6.796;2022-09-02T07:33:04;64.93;;;61.10;;
55202;SDS011;41077;52.956;6.796;2022-09-02T07:35:29;78.53;;;74.57;;
55202;SDS011;41077;52.956;6.796;2022-09-02T07:37:55;70.07;;;66.13;;
55202;SDS011;41077;52.956;6.796;2022-09-02T07:40:21;67.32;;;63.05;;
55202;SDS011;41077;52.956;6.796;2022-09-02T07:42:47;68.65;;;64.57;;
55202;SDS011;41077;52.956;6.796;2022-09-02T07:45:14;73.28;;;69.15;;
55202;SDS011;41077;52.956;6.796;2022-09-02T07:47:40;62.70;;;59.50;;
55202;SDS011;41077;52.956;6.796;2022-09-02T07:50:06;64.10;;;60.25;;
55202;SDS011;41077;52.956;6.796;2022-09-02T07:52:32;65.75;;;61.50;;
55202;SDS011;41077;52.956;6.796;2022-09-02T07:54:58;66.88;;;62.95;;
55202;SDS011;41077;52.956;6.796;2022-09-02T07:57:23;64.20;;;61.08;;
55202;SDS011;41077;52.956;6.796;2022-09-02T07:59:49;75.43;;;71.57;;
55202;SDS011;41077;52.956;6.796;2022-09-02T08:02:15;68.00;;;64.45;;
55202;SDS011;41077;52.956;6.796;2022-09-02T08:04:42;67.15;;;63.78;;
55202;SDS011;41077;52.956;6.796;2022-09-02T08:07:09;69.30;;;65.65;;
55202;SDS011;41077;52.956;6.796;2022-09-02T08:09:35;78.25;;;74.10;;
55202;SDS011;41077;52.956;6.796;2022-09-02T08:12:00;69.60;;;65.53;;
55202;SDS011;41077;52.956;6.796;2022-09-02T08:14:27;77.97;;;73.38;;
55202;SDS011;41077;52.956;6.796;2022-09-02T08:16:54;74.75;;;69.95;;
55202;SDS011;41077;52.956;6.796;2022-09-02T08:19:21;86.82;;;82.07;;
55202;SDS011;41077;52.956;6.796;2022-09-02T08:21:48;68.68;;;65.25;;
55202;SDS011;41077;52.956;6.796;2022-09-02T08:24:14;63.67;;;59.85;;
55202;SDS011;41077;52.956;6.796;2022-09-02T08:26:40;65.78;;;62.42;;
55202;SDS011;41077;52.956;6.796;2022-09-02T08:29:07;71.45;;;67.40;;
55202;SDS011;41077;52.956;6.796;2022-09-02T08:31:35;76.55;;;72.28;;
55202;SDS011;41077;52.956;6.796;2022-09-02T08:34:01;81.32;;;76.57;;
55202;SDS011;41077;52.956;6.796;2022-09-02T08:36:27;74.68;;;70.82;;
55202;SDS011;41077;52.956;6.796;2022-09-02T08:38:53;76.25;;;71.97;;
55202;SDS011;41077;52.956;6.796;2022-09-02T08:41:23;89.28;;;84.75;;
55202;SDS011;41077;52.956;6.796;2022-09-02T08:43:51;67.78;;;64.30;;
55202;SDS011;41077;52.956;6.796;2022-09-02T08:46:21;70.15;;;66.13;;
55202;SDS011;41077;52.956;6.796;2022-09-02T08:49:21;76.97;;;72.78;;
55202;SDS011;41077;52.956;6.796;2022-09-02T08:51:42;50.45;;;47.47;;
55202;SDS011;41077;52.956;6.796;2022-09-02T08:54:58;49.15;;;46.45;;
55202;SDS011;41077;52.956;6.796;2022-09-02T08:56:59;46.00;;;42.90;;
55202;SDS011;41077;52.956;6.796;2022-09-02T08:59:25;42.55;;;40.03;;
55202;SDS011;41077;52.956;6.796;2022-09-02T09:07:50;36.70;;;34.72;;
55202;SDS011;41077;52.956;6.796;2022-09-02T09:16:15;38.20;;;35.80;;
55202;SDS011;41077;52.956;6.796;2022-09-02T09:19:09;32.53;;;30.58;;
55202;SDS011;41077;52.956;6.796;2022-09-02T09:21:35;37.95;;;35.55;;
55202;SDS011;41077;52.956;6.796;2022-09-02T09:24:06;36.92;;;34.40;;
55202;SDS011;41077;52.956;6.796;2022-09-02T09:26:35;38.75;;;36.42;;
55202;SDS011;41077;52.956;6.796;2022-09-02T09:29:04;44.13;;;41.58;;
55202;SDS011;41077;52.956;6.796;2022-09-02T09:31:31;43.83;;;41.40;;
55202;SDS011;41077;52.956;6.796;2022-09-02T09:36:46;36.58;;;34.58;;
55202;SDS011;41077;52.956;6.796;2022-09-02T09:39:27;26.83;;;25.10;;
55202;SDS011;41077;52.956;6.796;2022-09-02T09:41:58;39.33;;;36.65;;
55202;SDS011;41077;52.956;6.796;2022-09-02T09:44:40;40.28;;;37.88;;
55202;SDS011;41077;52.956;6.796;2022-09-02T09:47:18;37.85;;;34.63;;
55202;SDS011;41077;52.956;6.796;2022-09-02T09:50:29;34.83;;;32.90;;
55202;SDS011;41077;52.956;6.796;2022-09-02T09:52:36;28.27;;;26.85;;
55202;SDS011;41077;52.956;6.796;2022-09-02T09:55:12;25.65;;;24.05;;
55202;SDS011;41077;52.956;6.796;2022-09-02T09:57:44;20.52;;;19.05;;
55202;SDS011;41077;52.956;6.796;2022-09-02T10:00:31;20.77;;;18.98;;
55202;SDS011;41077;52.956;6.796;2022-09-02T10:02:58;19.63;;;18.53;;
55202;SDS011;41077;52.956;6.796;2022-09-02T10:07:57;26.05;;;23.80;;
55202;SDS011;41077;52.956;6.796;2022-09-02T10:10:24;22.42;;;20.92;;
55202;SDS011;41077;52.956;6.796;2022-09-02T10:12:53;20.20;;;16.73;;
55202;SDS011;41077;52.956;6.796;2022-09-02T10:18:04;14.93;;;13.82;;
55202;SDS011;41077;52.956;6.796;2022-09-02T10:31:45;14.65;;;13.35;;
55202;SDS011;41077;52.956;6.796;2022-09-02T10:37:11;18.10;;;16.45;;
55202;SDS011;41077;52.956;6.796;2022-09-02T10:45:29;11.02;;;10.27;;
55202;SDS011;41077;52.956;6.796;2022-09-02T10:50:34;13.25;;;12.10;;
55202;SDS011;41077;52.956;6.796;2022-09-02T11:01:24;10.48;;;9.63;;
55202;SDS011;41077;52.956;6.796;2022-09-02T11:04:01;10.88;;;10.13;;
55202;SDS011;41077;52.956;6.796;2022-09-02T11:06:28;12.88;;;11.98;;
55202;SDS011;41077;52.956;6.796;2022-09-02T11:08:57;23.88;;;22.42;;
55202;SDS011;41077;52.956;6.796;2022-09-02T11:16:44;9.40;;;8.40;;
55202;SDS011;41077;52.956;6.796;2022-09-02T11:19:37;11.30;;;10.25;;
55202;SDS011;41077;52.956;6.796;2022-09-02T11:25:14;11.73;;;10.90;;
55202;SDS011;41077;52.956;6.796;2022-09-02T11:30:48;19.63;;;18.52;;
55202;SDS011;41077;52.956;6.796;2022-09-02T11:33:37;61.20;;;57.25;;
55202;SDS011;41077;52.956;6.796;2022-09-02T11:36:13;117.97;;;112.28;;
55202;SDS011;41077;52.956;6.796;2022-09-02T11:41:24;134.38;;;128.05;;
55202;SDS011;41077;52.956;6.796;2022-09-02T11:49:38;71.97;;;68.25;;
55202;SDS011;41077;52.956;6.796;2022-09-02T11:54:44;241.57;;;230.27;;
55202;SDS011;41077;52.956;6.796;2022-09-02T11:57:14;172.35;;;164.15;;
55202;SDS011;41077;52.956;6.796;2022-09-02T12:02:34;57.55;;;54.40;;
55202;SDS011;41077;52.956;6.796;2022-09-02T12:07:58;32.83;;;30.90;;
55202;SDS011;41077;52.956;6.796;2022-09-02T12:13:36;12.55;;;10.90;;
55202;SDS011;41077;52.956;6.796;2022-09-02T12:21:18;14.73;;;13.90;;
55202;SDS011;41077;52.956;6.796;2022-09-02T12:26:18;84.68;;;80.68;;
55202;SDS011;41077;52.956;6.796;2022-09-02T12:28:44;319.08;;;303.50;;
55202;SDS011;41077;52.956;6.796;2022-09-02T12:41:54;13.30;;;11.82;;
55202;SDS011;41077;52.956;6.796;2022-09-02T12:50:10;6.85;;;3.00;;
55202;SDS011;41077;52.956;6.796;2022-09-02T12:52:48;6.18;;;3.25;;
55202;SDS011;41077;52.956;6.796;2022-09-02T12:57:53;4.43;;;2.15;;
55202;SDS011;41077;52.956;6.796;2022-09-02T13:00:32;2.20;;;2.00;;
55202;SDS011;41077;52.956;6.796;2022-09-02T13:03:52;6.82;;;2.80;;
55202;SDS011;41077;52.956;6.796;2022-09-02T13:09:02;5.38;;;2.35;;
55202;SDS011;41077;52.956;6.796;2022-09-02T13:31:22;9.13;;;5.30;;
55202;SDS011;41077;52.956;6.796;2022-09-02T13:33:59;10.35;;;6.30;;
55202;SDS011;41077;52.956;6.796;2022-09-02T13:36:27;5.97;;;5.40;;
55202;SDS011;41077;52.956;6.796;2022-09-02T13:38:55;13.18;;;9.88;;
55202;SDS011;41077;52.956;6.796;2022-09-02T13:41:33;6.88;;;5.88;;
55202;SDS011;41077;52.956;6.796;2022-09-02T13:44:05;7.53;;;5.15;;
55202;SDS011;41077;52.956;6.796;2022-09-02T13:46:33;7.53;;;5.15;;
55202;SDS011;41077;52.956;6.796;2022-09-02T13:49:08;6.40;;;4.57;;
55202;SDS011;41077;52.956;6.796;2022-09-02T13:51:46;6.90;;;4.90;;
55202;SDS011;41077;52.956;6.796;2022-09-02T13:54:18;15.18;;;5.80;;
55202;SDS011;41077;52.956;6.796;2022-09-02T13:56:50;7.18;;;6.65;;
55202;SDS011;41077;52.956;6.796;2022-09-02T13:59:29;8.90;;;8.02;;
55202;SDS011;41077;52.956;6.796;2022-09-02T14:01:55;7.43;;;5.53;;
55202;SDS011;41077;52.956;6.796;2022-09-02T14:04:21;17.52;;;6.43;;
55202;SDS011;41077;52.956;6.796;2022-09-02T14:06:48;8.05;;;7.28;;
55202;SDS011;41077;52.956;6.796;2022-09-02T14:09:21;8.20;;;6.60;;
55202;SDS011;41077;52.956;6.796;2022-09-02T14:11:50;7.43;;;6.82;;
55202;SDS011;41077;52.956;6.796;2022-09-02T14:14:18;11.30;;;7.13;;
55202;SDS011;41077;52.956;6.796;2022-09-02T14:16:47;5.90;;;5.30;;
55202;SDS011;41077;52.956;6.796;2022-09-02T14:21:46;9.98;;;5.80;;
55202;SDS011;41077;52.956;6.796;2022-09-02T14:24:28;6.85;;;6.45;;
55202;SDS011;41077;52.956;6.796;2022-09-02T14:27:01;9.68;;;6.80;;
55202;SDS011;41077;52.956;6.796;2022-09-02T14:29:27;9.30;;;8.40;;
55202;SDS011;41077;52.956;6.796;2022-09-02T14:32:08;10.80;;;7.68;;
55202;SDS011;41077;52.956;6.796;2022-09-02T14:37:17;8.85;;;7.40;;
55202;SDS011;41077;52.956;6.796;2022-09-02T14:39:50;10.48;;;7.70;;
55202;SDS011;41077;52.956;6.796;2022-09-02T14:42:48;7.95;;;7.22;;
55202;SDS011;41077;52.956;6.796;2022-09-02T14:45:26;8.80;;;8.10;;
55202;SDS011;41077;52.956;6.796;2022-09-02T14:47:54;7.45;;;6.90;;
55202;SDS011;41077;52.956;6.796;2022-09-02T14:50:22;7.85;;;7.07;;
55202;SDS011;41077;52.956;6.796;2022-09-02T14:52:52;10.35;;;9.48;;
55202;SDS011;41077;52.956;6.796;2022-09-02T14:58:08;9.55;;;8.93;;
55202;SDS011;41077;52.956;6.796;2022-09-02T15:00:33;10.23;;;9.57;;
55202;SDS011;41077;52.956;6.796;2022-09-02T15:02:59;8.75;;;8.15;;
55202;SDS011;41077;52.956;6.796;2022-09-02T15:05:25;9.10;;;7.38;;
55202;SDS011;41077;52.956;6.796;2022-09-02T15:07:51;5.18;;;3.70;;
55202;SDS011;41077;52.956;6.796;2022-09-02T15:10:17;5.60;;;2.83;;
55202;SDS011;41077;52.956;6.796;2022-09-02T15:12:47;5.53;;;3.10;;
55202;SDS011;41077;52.956;6.796;2022-09-02T15:15:15;8.43;;;3.72;;
55202;SDS011;41077;52.956;6.796;2022-09-02T15:17:41;4.00;;;3.05;;
55202;SDS011;41077;52.956;6.796;2022-09-02T15:20:07;3.47;;;3.22;;
55202;SDS011;41077;52.956;6.796;2022-09-02T15:22:33;4.15;;;3.17;;
55202;SDS011;41077;52.956;6.796;2022-09-02T15:24:59;8.43;;;2.90;;
55202;SDS011;41077;52.956;6.796;2022-09-02T15:27:25;7.97;;;3.28;;
55202;SDS011;41077;52.956;6.796;2022-09-02T15:29:50;4.53;;;2.58;;
55202;SDS011;41077;52.956;6.796;2022-09-02T15:32:16;3.70;;;3.30;;
55202;SDS011;41077;52.956;6.796;2022-09-02T15:34:42;3.90;;;3.50;;
55202;SDS011;41077;52.956;6.796;2022-09-02T15:37:07;10.27;;;4.03;;
55202;SDS011;41077;52.956;6.796;2022-09-02T15:39:33;4.90;;;4.45;;
55202;SDS011;41077;52.956;6.796;2022-09-02T15:41:59;4.10;;;3.80;;
55202;SDS011;41077;52.956;6.796;2022-09-02T15:44:25;6.57;;;4.70;;
55202;SDS011;41077;52.956;6.796;2022-09-02T15:46:52;7.75;;;5.75;;
55202;SDS011;41077;52.956;6.796;2022-09-02T15:49:18;7.18;;;3.72;;
55202;SDS011;41077;52.956;6.796;2022-09-02T15:51:45;5.50;;;4.88;;
55202;SDS011;41077;52.956;6.796;2022-09-02T15:54:13;10.95;;;3.83;;
55202;SDS011;41077;52.956;6.796;2022-09-02T15:56:41;5.80;;;5.30;;
55202;SDS011;41077;52.956;6.796;2022-09-02T15:59:09;10.05;;;5.25;;
55202;SDS011;41077;52.956;6.796;2022-09-02T16:01:37;16.63;;;5.35;;
55202;SDS011;41077;52.956;6.796;2022-09-02T16:04:05;7.60;;;5.38;;
55202;SDS011;41077;52.956;6.796;2022-09-02T16:06:32;5.00;;;4.50;;
55202;SDS011;41077;52.956;6.796;2022-09-02T16:09:06;12.40;;;4.75;;
55202;SDS011;41077;52.956;6.796;2022-09-02T16:11:36;8.80;;;6.40;;
55202;SDS011;41077;52.956;6.796;2022-09-02T16:14:06;5.72;;;5.20;;
55202;SDS011;41077;52.956;6.796;2022-09-02T16:16:32;10.30;;;5.95;;
55202;SDS011;41077;52.956;6.796;2022-09-02T16:18:59;5.10;;;4.72;;
55202;SDS011;41077;52.956;6.796;2022-09-02T16:21:26;8.10;;;4.90;;
55202;SDS011;41077;52.956;6.796;2022-09-02T16:23:53;7.78;;;4.88;;
55202;SDS011;41077;52.956;6.796;2022-09-02T16:28:52;6.45;;;5.82;;
55202;SDS011;41077;52.956;6.796;2022-09-02T16:31:24;9.20;;;4.03;;
55202;SDS011;41077;52.956;6.796;2022-09-02T16:33:52;7.13;;;5.10;;
55202;SDS011;41077;52.956;6.796;2022-09-02T16:36:23;8.00;;;5.00;;
55202;SDS011;41077;52.956;6.796;2022-09-02T16:38:49;5.40;;;4.10;;
55202;SDS011;41077;52.956;6.796;2022-09-02T16:43:50;3.58;;;2.97;;
55202;SDS011;41077;52.956;6.796;2022-09-02T16:46:16;3.65;;;3.28;;
55202;SDS011;41077;52.956;6.796;2022-09-02T16:48:41;4.22;;;3.40;;
55202;SDS011;41077;52.956;6.796;2022-09-02T16:51:07;3.38;;;2.85;;
55202;SDS011;41077;52.956;6.796;2022-09-02T16:53:33;4.68;;;3.15;;
55202;SDS011;41077;52.956;6.796;2022-09-02T16:55:59;3.45;;;2.88;;
55202;SDS011;41077;52.956;6.796;2022-09-02T16:58:27;3.47;;;3.17;;
55202;SDS011;41077;52.956;6.796;2022-09-02T17:00:53;6.22;;;2.50;;